sensor_id;sensor_type;location;lat;lon;timestamp;P1;durP1;ratioP1;P2;durP2;ratioP2
51010;SDS011;37038;50.182;8.624;2022-08-21T00:02:13;14.88;;;7.30;;
51010;SDS011;37038;50.182;8.624;2022-08-21T00:05:03;14.27;;;6.97;;
51010;SDS011;37038;50.182;8.624;2022-08-21T00:07:52;12.27;;;7.00;;
51010;SDS011;37038;50.182;8.624;2022-08-21T00:10:40;10.63;;;6.13;;
51010;SDS011;37038;50.182;8.624;2022-08-21T00:13:29;12.13;;;7.15;;
51010;SDS011;37038;50.182;8.624;2022-08-21T00:16:17;13.63;;;7.45;;
51010;SDS011;37038;50.182;8.624;2022-08-21T00:19:05;14.75;;;6.95;;
51010;SDS011;37038;50.182;8.624;2022-08-21T00:21:54;14.40;;;7.72;;
51010;SDS011;37038;50.182;8.624;2022-08-21T00:24:42;13.50;;;7.07;;
51010;SDS011;37038;50.182;8.624;2022-08-21T00:27:30;10.20;;;7.22;;
51010;SDS011;37038;50.182;8.624;2022-08-21T00:30:20;16.52;;;7.53;;
51010;SDS011;37038;50.182;8.624;2022-08-21T00:33:10;12.27;;;7.50;;
51010;SDS011;37038;50.182;8.624;2022-08-21T00:35:58;10.45;;;7.13;;
51010;SDS011;37038;50.182;8.624;2022-08-21T00:38:47;12.95;;;8.25;;
51010;SDS011;37038;50.182;8.624;2022-08-21T00:41:35;11.10;;;8.07;;
51010;SDS011;37038;50.182;8.624;2022-08-21T00:44:25;9.88;;;8.07;;
51010;SDS011;37038;50.182;8.624;2022-08-21T00:47:13;8.82;;;7.82;;
51010;SDS011;37038;50.182;8.624;2022-08-21T00:50:02;11.43;;;8.93;;
51010;SDS011;37038;50.182;8.624;2022-08-21T00:52:58;10.30;;;8.50;;
51010;SDS011;37038;50.182;8.624;2022-08-21T00:55:47;11.57;;;8.90;;
51010;SDS011;37038;50.182;8.624;2022-08-21T00:58:37;15.70;;;8.32;;
51010;SDS011;37038;50.182;8.624;2022-08-21T01:01:29;14.00;;;8.33;;
51010;SDS011;37038;50.182;8.624;2022-08-21T01:04:18;10.20;;;8.35;;
51010;SDS011;37038;50.182;8.624;2022-08-21T01:07:07;12.57;;;9.18;;
51010;SDS011;37038;50.182;8.624;2022-08-21T01:09:56;17.02;;;9.00;;
51010;SDS011;37038;50.182;8.624;2022-08-21T01:12:44;13.30;;;9.80;;
51010;SDS011;37038;50.182;8.624;2022-08-21T01:15:33;12.55;;;8.52;;
51010;SDS011;37038;50.182;8.624;2022-08-21T01:18:26;13.25;;;8.77;;
51010;SDS011;37038;50.182;8.624;2022-08-21T01:21:20;14.88;;;9.30;;
51010;SDS011;37038;50.182;8.624;2022-08-21T01:24:14;15.65;;;9.63;;
51010;SDS011;37038;50.182;8.624;2022-08-21T01:27:02;14.50;;;9.02;;
51010;SDS011;37038;50.182;8.624;2022-08-21T01:29:55;11.18;;;9.93;;
51010;SDS011;37038;50.182;8.624;2022-08-21T01:32:46;9.70;;;8.70;;
51010;SDS011;37038;50.182;8.624;2022-08-21T01:35:36;13.82;;;9.40;;
51010;SDS011;37038;50.182;8.624;2022-08-21T01:38:24;14.75;;;9.63;;
51010;SDS011;37038;50.182;8.624;2022-08-21T01:41:14;13.98;;;9.68;;
51010;SDS011;37038;50.182;8.624;2022-08-21T01:44:03;12.20;;;9.65;;
51010;SDS011;37038;50.182;8.624;2022-08-21T01:46:51;11.65;;;10.02;;
51010;SDS011;37038;50.182;8.624;2022-08-21T01:49:39;12.10;;;9.30;;
51010;SDS011;37038;50.182;8.624;2022-08-21T01:52:28;16.17;;;10.23;;
51010;SDS011;37038;50.182;8.624;2022-08-21T01:55:18;11.52;;;10.30;;
51010;SDS011;37038;50.182;8.624;2022-08-21T01:58:06;14.40;;;9.85;;
51010;SDS011;37038;50.182;8.624;2022-08-21T02:00:54;11.77;;;10.55;;
51010;SDS011;37038;50.182;8.624;2022-08-21T02:03:42;11.65;;;10.23;;
51010;SDS011;37038;50.182;8.624;2022-08-21T02:06:30;13.88;;;8.95;;
51010;SDS011;37038;50.182;8.624;2022-08-21T02:09:18;12.40;;;10.25;;
51010;SDS011;37038;50.182;8.624;2022-08-21T02:12:06;14.57;;;10.50;;
51010;SDS011;37038;50.182;8.624;2022-08-21T02:14:54;13.60;;;10.15;;
51010;SDS011;37038;50.182;8.624;2022-08-21T02:17:44;13.68;;;10.90;;
51010;SDS011;37038;50.182;8.624;2022-08-21T02:20:37;15.30;;;10.48;;
51010;SDS011;37038;50.182;8.624;2022-08-21T02:23:29;12.45;;;10.27;;
51010;SDS011;37038;50.182;8.624;2022-08-21T02:26:17;14.00;;;10.75;;
51010;SDS011;37038;50.182;8.624;2022-08-21T02:29:05;11.95;;;9.63;;
51010;SDS011;37038;50.182;8.624;2022-08-21T02:31:53;14.65;;;9.70;;
51010;SDS011;37038;50.182;8.624;2022-08-21T02:34:41;12.00;;;9.05;;
51010;SDS011;37038;50.182;8.624;2022-08-21T02:37:29;17.17;;;10.23;;
51010;SDS011;37038;50.182;8.624;2022-08-21T02:40:18;11.23;;;8.52;;
51010;SDS011;37038;50.182;8.624;2022-08-21T02:43:10;11.43;;;9.48;;
51010;SDS011;37038;50.182;8.624;2022-08-21T02:45:59;10.18;;;9.15;;
51010;SDS011;37038;50.182;8.624;2022-08-21T02:48:47;11.20;;;9.25;;
51010;SDS011;37038;50.182;8.624;2022-08-21T02:51:35;10.23;;;9.18;;
51010;SDS011;37038;50.182;8.624;2022-08-21T02:54:23;12.18;;;10.40;;
51010;SDS011;37038;50.182;8.624;2022-08-21T02:57:11;11.40;;;9.30;;
51010;SDS011;37038;50.182;8.624;2022-08-21T02:59:59;13.95;;;10.07;;
51010;SDS011;37038;50.182;8.624;2022-08-21T03:02:47;12.43;;;9.40;;
51010;SDS011;37038;50.182;8.624;2022-08-21T03:05:36;13.77;;;10.43;;
51010;SDS011;37038;50.182;8.624;2022-08-21T03:08:24;13.55;;;10.48;;
51010;SDS011;37038;50.182;8.624;2022-08-21T03:11:15;12.23;;;10.45;;
51010;SDS011;37038;50.182;8.624;2022-08-21T03:14:04;14.43;;;10.55;;
51010;SDS011;37038;50.182;8.624;2022-08-21T03:16:52;13.98;;;10.93;;
51010;SDS011;37038;50.182;8.624;2022-08-21T03:19:40;15.43;;;10.95;;
51010;SDS011;37038;50.182;8.624;2022-08-21T03:22:29;13.82;;;11.65;;
51010;SDS011;37038;50.182;8.624;2022-08-21T03:25:17;28.90;;;13.98;;
51010;SDS011;37038;50.182;8.624;2022-08-21T03:28:16;27.25;;;13.50;;
51010;SDS011;37038;50.182;8.624;2022-08-21T03:31:08;38.92;;;16.73;;
51010;SDS011;37038;50.182;8.624;2022-08-21T03:33:56;19.25;;;12.07;;
51010;SDS011;37038;50.182;8.624;2022-08-21T03:36:45;14.80;;;11.65;;
51010;SDS011;37038;50.182;8.624;2022-08-21T03:39:33;14.68;;;10.60;;
51010;SDS011;37038;50.182;8.624;2022-08-21T03:42:21;11.23;;;10.07;;
51010;SDS011;37038;50.182;8.624;2022-08-21T03:45:10;16.63;;;11.40;;
51010;SDS011;37038;50.182;8.624;2022-08-21T03:47:59;17.65;;;11.32;;
51010;SDS011;37038;50.182;8.624;2022-08-21T03:50:51;16.27;;;11.48;;
51010;SDS011;37038;50.182;8.624;2022-08-21T03:53:40;19.15;;;11.60;;
51010;SDS011;37038;50.182;8.624;2022-08-21T03:56:27;14.90;;;11.15;;
51010;SDS011;37038;50.182;8.624;2022-08-21T03:59:15;16.35;;;11.45;;
51010;SDS011;37038;50.182;8.624;2022-08-21T04:02:04;21.25;;;12.18;;
51010;SDS011;37038;50.182;8.624;2022-08-21T04:04:53;19.02;;;12.27;;
51010;SDS011;37038;50.182;8.624;2022-08-21T04:07:41;19.27;;;12.15;;
51010;SDS011;37038;50.182;8.624;2022-08-21T04:10:32;15.15;;;11.95;;
51010;SDS011;37038;50.182;8.624;2022-08-21T04:13:23;19.52;;;12.15;;
51010;SDS011;37038;50.182;8.624;2022-08-21T04:16:13;17.40;;;12.05;;
51010;SDS011;37038;50.182;8.624;2022-08-21T04:19:01;19.88;;;11.55;;
51010;SDS011;37038;50.182;8.624;2022-08-21T04:21:49;18.25;;;11.73;;
51010;SDS011;37038;50.182;8.624;2022-08-21T04:24:38;15.48;;;12.70;;
51010;SDS011;37038;50.182;8.624;2022-08-21T04:27:26;18.55;;;12.18;;
51010;SDS011;37038;50.182;8.624;2022-08-21T04:30:14;16.35;;;11.68;;
51010;SDS011;37038;50.182;8.624;2022-08-21T04:33:03;14.07;;;12.20;;
51010;SDS011;37038;50.182;8.624;2022-08-21T04:35:51;20.67;;;12.63;;
51010;SDS011;37038;50.182;8.624;2022-08-21T04:38:39;16.63;;;12.13;;
51010;SDS011;37038;50.182;8.624;2022-08-21T04:41:30;17.95;;;12.13;;
51010;SDS011;37038;50.182;8.624;2022-08-21T04:44:18;16.65;;;12.68;;
51010;SDS011;37038;50.182;8.624;2022-08-21T04:47:06;19.42;;;12.52;;
51010;SDS011;37038;50.182;8.624;2022-08-21T04:49:55;18.95;;;13.00;;
51010;SDS011;37038;50.182;8.624;2022-08-21T04:52:43;25.10;;;13.07;;
51010;SDS011;37038;50.182;8.624;2022-08-21T04:55:31;20.92;;;12.70;;
51010;SDS011;37038;50.182;8.624;2022-08-21T04:58:19;14.18;;;11.77;;
51010;SDS011;37038;50.182;8.624;2022-08-21T05:01:13;15.15;;;12.77;;
51010;SDS011;37038;50.182;8.624;2022-08-21T05:04:07;13.93;;;12.00;;
51010;SDS011;37038;50.182;8.624;2022-08-21T05:07:01;21.73;;;13.82;;
51010;SDS011;37038;50.182;8.624;2022-08-21T05:09:51;13.57;;;12.10;;
51010;SDS011;37038;50.182;8.624;2022-08-21T05:12:41;20.33;;;12.43;;
51010;SDS011;37038;50.182;8.624;2022-08-21T05:15:30;18.05;;;12.77;;
51010;SDS011;37038;50.182;8.624;2022-08-21T05:18:18;17.42;;;12.45;;
51010;SDS011;37038;50.182;8.624;2022-08-21T05:21:06;20.55;;;12.02;;
51010;SDS011;37038;50.182;8.624;2022-08-21T05:23:54;36.38;;;15.50;;
51010;SDS011;37038;50.182;8.624;2022-08-21T05:26:43;45.03;;;18.38;;
51010;SDS011;37038;50.182;8.624;2022-08-21T05:29:32;20.90;;;13.20;;
51010;SDS011;37038;50.182;8.624;2022-08-21T05:32:21;23.50;;;11.95;;
51010;SDS011;37038;50.182;8.624;2022-08-21T05:35:09;23.38;;;12.55;;
51010;SDS011;37038;50.182;8.624;2022-08-21T05:37:58;20.17;;;12.65;;
51010;SDS011;37038;50.182;8.624;2022-08-21T05:40:47;17.95;;;11.65;;
51010;SDS011;37038;50.182;8.624;2022-08-21T05:43:35;18.80;;;11.32;;
51010;SDS011;37038;50.182;8.624;2022-08-21T05:46:23;15.07;;;11.65;;
51010;SDS011;37038;50.182;8.624;2022-08-21T05:49:11;17.88;;;12.25;;
51010;SDS011;37038;50.182;8.624;2022-08-21T05:51:59;22.08;;;11.70;;
51010;SDS011;37038;50.182;8.624;2022-08-21T05:54:48;13.43;;;10.43;;
51010;SDS011;37038;50.182;8.624;2022-08-21T05:57:37;14.55;;;11.57;;
51010;SDS011;37038;50.182;8.624;2022-08-21T06:00:27;13.25;;;11.63;;
51010;SDS011;37038;50.182;8.624;2022-08-21T06:03:17;18.00;;;12.73;;
51010;SDS011;37038;50.182;8.624;2022-08-21T06:06:08;17.45;;;11.23;;
51010;SDS011;37038;50.182;8.624;2022-08-21T06:08:56;15.63;;;10.63;;
51010;SDS011;37038;50.182;8.624;2022-08-21T06:11:44;15.23;;;11.55;;
51010;SDS011;37038;50.182;8.624;2022-08-21T06:14:32;18.13;;;11.57;;
51010;SDS011;37038;50.182;8.624;2022-08-21T06:17:20;15.48;;;10.73;;
51010;SDS011;37038;50.182;8.624;2022-08-21T06:20:08;15.00;;;10.85;;
51010;SDS011;37038;50.182;8.624;2022-08-21T06:22:57;16.88;;;10.93;;
51010;SDS011;37038;50.182;8.624;2022-08-21T06:25:45;13.68;;;10.35;;
51010;SDS011;37038;50.182;8.624;2022-08-21T06:28:34;13.32;;;9.82;;
51010;SDS011;37038;50.182;8.624;2022-08-21T06:31:23;18.80;;;11.23;;
51010;SDS011;37038;50.182;8.624;2022-08-21T06:34:14;16.77;;;11.52;;
51010;SDS011;37038;50.182;8.624;2022-08-21T06:37:02;19.40;;;11.00;;
51010;SDS011;37038;50.182;8.624;2022-08-21T06:39:51;12.75;;;10.68;;
51010;SDS011;37038;50.182;8.624;2022-08-21T06:42:39;16.27;;;10.68;;
51010;SDS011;37038;50.182;8.624;2022-08-21T06:45:29;17.90;;;11.48;;
51010;SDS011;37038;50.182;8.624;2022-08-21T06:48:18;16.02;;;10.98;;
51010;SDS011;37038;50.182;8.624;2022-08-21T06:51:06;16.95;;;10.82;;
51010;SDS011;37038;50.182;8.624;2022-08-21T06:53:54;15.23;;;10.98;;
51010;SDS011;37038;50.182;8.624;2022-08-21T06:56:45;13.25;;;11.13;;
51010;SDS011;37038;50.182;8.624;2022-08-21T06:59:33;17.27;;;11.25;;
51010;SDS011;37038;50.182;8.624;2022-08-21T07:02:21;16.30;;;10.98;;
51010;SDS011;37038;50.182;8.624;2022-08-21T07:05:09;15.45;;;11.02;;
51010;SDS011;37038;50.182;8.624;2022-08-21T07:08:05;17.92;;;11.35;;
51010;SDS011;37038;50.182;8.624;2022-08-21T07:10:56;10.90;;;9.57;;
51010;SDS011;37038;50.182;8.624;2022-08-21T07:13:48;15.55;;;11.10;;
51010;SDS011;37038;50.182;8.624;2022-08-21T07:16:40;16.70;;;10.35;;
51010;SDS011;37038;50.182;8.624;2022-08-21T07:19:29;13.77;;;10.23;;
51010;SDS011;37038;50.182;8.624;2022-08-21T07:22:20;13.65;;;11.00;;
51010;SDS011;37038;50.182;8.624;2022-08-21T07:25:11;12.15;;;10.13;;
51010;SDS011;37038;50.182;8.624;2022-08-21T07:28:01;13.35;;;10.30;;
51010;SDS011;37038;50.182;8.624;2022-08-21T07:30:52;15.77;;;9.68;;
51010;SDS011;37038;50.182;8.624;2022-08-21T07:33:47;14.02;;;9.70;;
51010;SDS011;37038;50.182;8.624;2022-08-21T07:36:38;13.00;;;9.45;;
51010;SDS011;37038;50.182;8.624;2022-08-21T07:39:30;16.77;;;10.43;;
51010;SDS011;37038;50.182;8.624;2022-08-21T07:42:19;12.60;;;8.32;;
51010;SDS011;37038;50.182;8.624;2022-08-21T07:45:13;12.75;;;9.48;;
51010;SDS011;37038;50.182;8.624;2022-08-21T07:48:04;10.32;;;9.23;;
51010;SDS011;37038;50.182;8.624;2022-08-21T07:50:55;10.82;;;9.68;;
51010;SDS011;37038;50.182;8.624;2022-08-21T07:53:49;11.00;;;9.05;;
51010;SDS011;37038;50.182;8.624;2022-08-21T07:56:43;12.93;;;9.27;;
51010;SDS011;37038;50.182;8.624;2022-08-21T07:59:35;14.07;;;9.73;;
51010;SDS011;37038;50.182;8.624;2022-08-21T08:02:28;10.98;;;9.05;;
51010;SDS011;37038;50.182;8.624;2022-08-21T08:05:22;10.73;;;9.27;;
51010;SDS011;37038;50.182;8.624;2022-08-21T08:08:17;10.25;;;8.85;;
51010;SDS011;37038;50.182;8.624;2022-08-21T08:11:09;10.98;;;8.15;;
51010;SDS011;37038;50.182;8.624;2022-08-21T08:14:05;13.57;;;9.45;;
51010;SDS011;37038;50.182;8.624;2022-08-21T08:16:56;12.20;;;8.88;;
51010;SDS011;37038;50.182;8.624;2022-08-21T08:19:49;11.25;;;8.30;;
51010;SDS011;37038;50.182;8.624;2022-08-21T08:22:40;11.05;;;8.35;;
51010;SDS011;37038;50.182;8.624;2022-08-21T08:25:37;14.32;;;8.82;;
51010;SDS011;37038;50.182;8.624;2022-08-21T08:28:30;11.98;;;8.88;;
51010;SDS011;37038;50.182;8.624;2022-08-21T08:31:22;12.88;;;8.65;;
51010;SDS011;37038;50.182;8.624;2022-08-21T08:34:13;10.63;;;7.78;;
51010;SDS011;37038;50.182;8.624;2022-08-21T08:37:13;11.15;;;7.38;;
51010;SDS011;37038;50.182;8.624;2022-08-21T08:40:04;9.70;;;7.90;;
51010;SDS011;37038;50.182;8.624;2022-08-21T08:42:56;14.10;;;7.57;;
51010;SDS011;37038;50.182;8.624;2022-08-21T08:45:50;12.88;;;7.50;;
51010;SDS011;37038;50.182;8.624;2022-08-21T08:49:06;8.00;;;7.10;;
51010;SDS011;37038;50.182;8.624;2022-08-21T08:55:26;11.80;;;8.45;;
51010;SDS011;37038;50.182;8.624;2022-08-21T08:58:29;12.88;;;7.30;;
51010;SDS011;37038;50.182;8.624;2022-08-21T09:01:25;9.57;;;6.90;;
51010;SDS011;37038;50.182;8.624;2022-08-21T09:04:19;10.23;;;6.43;;
51010;SDS011;37038;50.182;8.624;2022-08-21T09:07:31;12.68;;;6.82;;
51010;SDS011;37038;50.182;8.624;2022-08-21T09:17:20;9.05;;;4.55;;
51010;SDS011;37038;50.182;8.624;2022-08-21T09:20:37;8.00;;;4.70;;
51010;SDS011;37038;50.182;8.624;2022-08-21T09:24:01;8.27;;;4.75;;
51010;SDS011;37038;50.182;8.624;2022-08-21T09:27:21;7.05;;;4.40;;
51010;SDS011;37038;50.182;8.624;2022-08-21T09:30:11;10.25;;;4.68;;
51010;SDS011;37038;50.182;8.624;2022-08-21T09:33:01;12.23;;;4.50;;
51010;SDS011;37038;50.182;8.624;2022-08-21T09:35:52;7.50;;;4.65;;
51010;SDS011;37038;50.182;8.624;2022-08-21T09:38:51;9.68;;;4.10;;
51010;SDS011;37038;50.182;8.624;2022-08-21T09:41:44;8.13;;;3.78;;
51010;SDS011;37038;50.182;8.624;2022-08-21T09:44:47;10.05;;;3.80;;
51010;SDS011;37038;50.182;8.624;2022-08-21T09:48:10;8.15;;;4.05;;
51010;SDS011;37038;50.182;8.624;2022-08-21T09:51:08;7.13;;;4.50;;
51010;SDS011;37038;50.182;8.624;2022-08-21T10:00:34;9.93;;;4.47;;
51010;SDS011;37038;50.182;8.624;2022-08-21T10:03:26;9.95;;;4.25;;
51010;SDS011;37038;50.182;8.624;2022-08-21T10:06:24;6.53;;;3.90;;
51010;SDS011;37038;50.182;8.624;2022-08-21T10:09:21;8.65;;;3.80;;
51010;SDS011;37038;50.182;8.624;2022-08-21T10:15:27;8.95;;;4.47;;
51010;SDS011;37038;50.182;8.624;2022-08-21T10:18:39;8.02;;;4.55;;
51010;SDS011;37038;50.182;8.624;2022-08-21T10:25:21;7.50;;;4.18;;
51010;SDS011;37038;50.182;8.624;2022-08-21T10:28:58;5.28;;;3.80;;
51010;SDS011;37038;50.182;8.624;2022-08-21T10:32:38;8.10;;;4.28;;
51010;SDS011;37038;50.182;8.624;2022-08-21T10:36:09;8.43;;;3.92;;
51010;SDS011;37038;50.182;8.624;2022-08-21T10:39:24;5.97;;;3.47;;
51010;SDS011;37038;50.182;8.624;2022-08-21T10:46:08;12.30;;;5.25;;
51010;SDS011;37038;50.182;8.624;2022-08-21T10:52:46;6.40;;;3.37;;
51010;SDS011;37038;50.182;8.624;2022-08-21T11:05:26;4.72;;;2.78;;
51010;SDS011;37038;50.182;8.624;2022-08-21T11:08:29;7.43;;;3.53;;
51010;SDS011;37038;50.182;8.624;2022-08-21T11:11:38;11.52;;;3.78;;
51010;SDS011;37038;50.182;8.624;2022-08-21T11:14:51;9.90;;;3.35;;
51010;SDS011;37038;50.182;8.624;2022-08-21T11:27:44;5.85;;;2.85;;
51010;SDS011;37038;50.182;8.624;2022-08-21T11:30:58;4.47;;;2.95;;
51010;SDS011;37038;50.182;8.624;2022-08-21T11:34:15;6.55;;;2.78;;
51010;SDS011;37038;50.182;8.624;2022-08-21T11:44:34;7.65;;;3.53;;
51010;SDS011;37038;50.182;8.624;2022-08-21T11:51:07;6.75;;;3.33;;
51010;SDS011;37038;50.182;8.624;2022-08-21T11:54:16;6.30;;;3.20;;
51010;SDS011;37038;50.182;8.624;2022-08-21T11:58:07;8.27;;;3.05;;
51010;SDS011;37038;50.182;8.624;2022-08-21T12:01:11;7.75;;;3.20;;
51010;SDS011;37038;50.182;8.624;2022-08-21T12:07:30;8.85;;;3.20;;
51010;SDS011;37038;50.182;8.624;2022-08-21T12:10:34;5.95;;;2.63;;
51010;SDS011;37038;50.182;8.624;2022-08-21T12:13:30;5.45;;;3.20;;
51010;SDS011;37038;50.182;8.624;2022-08-21T12:16:35;10.82;;;3.40;;
51010;SDS011;37038;50.182;8.624;2022-08-21T12:19:30;9.02;;;3.15;;
51010;SDS011;37038;50.182;8.624;2022-08-21T12:22:34;5.25;;;2.55;;
51010;SDS011;37038;50.182;8.624;2022-08-21T12:25:38;6.30;;;2.88;;
51010;SDS011;37038;50.182;8.624;2022-08-21T12:28:48;7.80;;;3.00;;
51010;SDS011;37038;50.182;8.624;2022-08-21T12:31:53;6.22;;;3.00;;
51010;SDS011;37038;50.182;8.624;2022-08-21T12:35:07;4.82;;;2.97;;
51010;SDS011;37038;50.182;8.624;2022-08-21T12:38:17;6.53;;;2.60;;
51010;SDS011;37038;50.182;8.624;2022-08-21T12:41:45;7.10;;;2.83;;
51010;SDS011;37038;50.182;8.624;2022-08-21T12:44:59;6.05;;;3.00;;
51010;SDS011;37038;50.182;8.624;2022-08-21T12:47:59;6.57;;;2.67;;
51010;SDS011;37038;50.182;8.624;2022-08-21T12:51:28;4.63;;;2.70;;
51010;SDS011;37038;50.182;8.624;2022-08-21T12:54:39;4.93;;;2.65;;
51010;SDS011;37038;50.182;8.624;2022-08-21T12:57:35;7.45;;;2.92;;
51010;SDS011;37038;50.182;8.624;2022-08-21T13:00:31;6.45;;;2.80;;
51010;SDS011;37038;50.182;8.624;2022-08-21T13:03:22;6.35;;;2.60;;
51010;SDS011;37038;50.182;8.624;2022-08-21T13:06:15;6.45;;;2.88;;
51010;SDS011;37038;50.182;8.624;2022-08-21T13:09:14;6.57;;;2.85;;
51010;SDS011;37038;50.182;8.624;2022-08-21T13:12:11;8.65;;;3.10;;
51010;SDS011;37038;50.182;8.624;2022-08-21T13:15:05;3.95;;;2.83;;
51010;SDS011;37038;50.182;8.624;2022-08-21T13:17:56;5.65;;;2.85;;
51010;SDS011;37038;50.182;8.624;2022-08-21T13:20:50;6.40;;;2.90;;
51010;SDS011;37038;50.182;8.624;2022-08-21T13:23:51;6.93;;;3.05;;
51010;SDS011;37038;50.182;8.624;2022-08-21T13:26:42;7.30;;;2.78;;
51010;SDS011;37038;50.182;8.624;2022-08-21T13:29:34;4.90;;;3.35;;
51010;SDS011;37038;50.182;8.624;2022-08-21T13:32:25;6.72;;;3.28;;
51010;SDS011;37038;50.182;8.624;2022-08-21T13:35:24;7.32;;;2.95;;
51010;SDS011;37038;50.182;8.624;2022-08-21T13:38:24;9.60;;;2.60;;
51010;SDS011;37038;50.182;8.624;2022-08-21T13:41:41;5.40;;;2.65;;
51010;SDS011;37038;50.182;8.624;2022-08-21T13:44:40;5.40;;;2.88;;
51010;SDS011;37038;50.182;8.624;2022-08-21T13:47:35;4.70;;;2.65;;
51010;SDS011;37038;50.182;8.624;2022-08-21T13:50:27;6.15;;;2.88;;
51010;SDS011;37038;50.182;8.624;2022-08-21T13:56:46;3.88;;;2.40;;
51010;SDS011;37038;50.182;8.624;2022-08-21T13:59:38;3.90;;;2.28;;
51010;SDS011;37038;50.182;8.624;2022-08-21T14:02:30;6.60;;;2.88;;
51010;SDS011;37038;50.182;8.624;2022-08-21T14:05:33;3.78;;;2.25;;
51010;SDS011;37038;50.182;8.624;2022-08-21T14:08:31;4.55;;;2.28;;
51010;SDS011;37038;50.182;8.624;2022-08-21T14:11:23;7.07;;;2.90;;
51010;SDS011;37038;50.182;8.624;2022-08-21T14:17:27;3.83;;;2.40;;
51010;SDS011;37038;50.182;8.624;2022-08-21T14:20:29;6.35;;;2.13;;
51010;SDS011;37038;50.182;8.624;2022-08-21T14:23:25;3.67;;;2.50;;
51010;SDS011;37038;50.182;8.624;2022-08-21T14:29:08;4.80;;;2.60;;
51010;SDS011;37038;50.182;8.624;2022-08-21T14:32:25;4.50;;;2.35;;
51010;SDS011;37038;50.182;8.624;2022-08-21T14:35:19;4.05;;;1.95;;
51010;SDS011;37038;50.182;8.624;2022-08-21T14:38:13;4.72;;;2.05;;
51010;SDS011;37038;50.182;8.624;2022-08-21T14:44:12;4.65;;;2.00;;
51010;SDS011;37038;50.182;8.624;2022-08-21T14:47:03;3.50;;;2.03;;
51010;SDS011;37038;50.182;8.624;2022-08-21T14:49:56;5.47;;;2.05;;
51010;SDS011;37038;50.182;8.624;2022-08-21T14:52:46;6.18;;;2.22;;
51010;SDS011;37038;50.182;8.624;2022-08-21T14:55:37;3.30;;;1.90;;
51010;SDS011;37038;50.182;8.624;2022-08-21T14:58:47;5.38;;;2.38;;
51010;SDS011;37038;50.182;8.624;2022-08-21T15:01:40;4.22;;;2.30;;
51010;SDS011;37038;50.182;8.624;2022-08-21T15:04:30;6.57;;;2.10;;
51010;SDS011;37038;50.182;8.624;2022-08-21T15:07:23;2.83;;;1.88;;
51010;SDS011;37038;50.182;8.624;2022-08-21T15:10:14;5.90;;;2.30;;
51010;SDS011;37038;50.182;8.624;2022-08-21T15:13:07;3.90;;;2.10;;
51010;SDS011;37038;50.182;8.624;2022-08-21T15:15:58;3.95;;;2.10;;
51010;SDS011;37038;50.182;8.624;2022-08-21T15:18:49;3.25;;;2.10;;
51010;SDS011;37038;50.182;8.624;2022-08-21T15:21:40;6.40;;;2.45;;
51010;SDS011;37038;50.182;8.624;2022-08-21T15:24:32;4.85;;;2.30;;
51010;SDS011;37038;50.182;8.624;2022-08-21T15:27:24;4.05;;;2.38;;
51010;SDS011;37038;50.182;8.624;2022-08-21T15:30:15;2.95;;;2.10;;
51010;SDS011;37038;50.182;8.624;2022-08-21T15:33:07;6.45;;;2.58;;
51010;SDS011;37038;50.182;8.624;2022-08-21T15:35:59;6.55;;;2.60;;
51010;SDS011;37038;50.182;8.624;2022-08-21T15:38:50;5.47;;;2.17;;
51010;SDS011;37038;50.182;8.624;2022-08-21T15:41:40;6.95;;;2.47;;
51010;SDS011;37038;50.182;8.624;2022-08-21T15:44:32;4.38;;;2.33;;
51010;SDS011;37038;50.182;8.624;2022-08-21T15:47:30;3.95;;;2.00;;
51010;SDS011;37038;50.182;8.624;2022-08-21T15:50:23;5.03;;;2.28;;
51010;SDS011;37038;50.182;8.624;2022-08-21T15:53:17;5.00;;;2.60;;
51010;SDS011;37038;50.182;8.624;2022-08-21T15:56:26;5.18;;;2.40;;
51010;SDS011;37038;50.182;8.624;2022-08-21T15:59:23;4.25;;;2.20;;
51010;SDS011;37038;50.182;8.624;2022-08-21T16:02:22;5.00;;;2.17;;
51010;SDS011;37038;50.182;8.624;2022-08-21T16:05:18;5.28;;;2.22;;
51010;SDS011;37038;50.182;8.624;2022-08-21T16:08:11;4.65;;;2.30;;
51010;SDS011;37038;50.182;8.624;2022-08-21T16:11:03;3.72;;;1.98;;
51010;SDS011;37038;50.182;8.624;2022-08-21T16:13:54;4.38;;;2.80;;
51010;SDS011;37038;50.182;8.624;2022-08-21T16:16:47;5.22;;;2.72;;
51010;SDS011;37038;50.182;8.624;2022-08-21T16:19:38;6.10;;;2.50;;
51010;SDS011;37038;50.182;8.624;2022-08-21T16:22:32;6.75;;;2.47;;
51010;SDS011;37038;50.182;8.624;2022-08-21T16:25:34;5.88;;;2.55;;
51010;SDS011;37038;50.182;8.624;2022-08-21T16:28:28;3.70;;;2.53;;
51010;SDS011;37038;50.182;8.624;2022-08-21T16:31:25;9.43;;;2.63;;
51010;SDS011;37038;50.182;8.624;2022-08-21T16:37:08;5.15;;;2.28;;
51010;SDS011;37038;50.182;8.624;2022-08-21T16:40:07;5.57;;;2.85;;
51010;SDS011;37038;50.182;8.624;2022-08-21T16:42:57;2.88;;;2.20;;
51010;SDS011;37038;50.182;8.624;2022-08-21T16:45:48;4.50;;;2.50;;
51010;SDS011;37038;50.182;8.624;2022-08-21T16:48:40;5.33;;;1.93;;
51010;SDS011;37038;50.182;8.624;2022-08-21T16:51:31;2.47;;;1.85;;
51010;SDS011;37038;50.182;8.624;2022-08-21T16:54:25;2.85;;;1.52;;
51010;SDS011;37038;50.182;8.624;2022-08-21T16:57:18;4.00;;;1.95;;
51010;SDS011;37038;50.182;8.624;2022-08-21T17:00:10;3.30;;;2.13;;
51010;SDS011;37038;50.182;8.624;2022-08-21T17:03:01;4.45;;;1.75;;
51010;SDS011;37038;50.182;8.624;2022-08-21T17:05:53;2.97;;;1.73;;
51010;SDS011;37038;50.182;8.624;2022-08-21T17:08:43;3.55;;;2.10;;
51010;SDS011;37038;50.182;8.624;2022-08-21T17:11:42;5.00;;;1.83;;
51010;SDS011;37038;50.182;8.624;2022-08-21T17:14:37;6.38;;;1.63;;
51010;SDS011;37038;50.182;8.624;2022-08-21T17:17:29;7.40;;;1.90;;
51010;SDS011;37038;50.182;8.624;2022-08-21T17:20:22;6.32;;;1.98;;
51010;SDS011;37038;50.182;8.624;2022-08-21T17:23:14;3.67;;;1.50;;
51010;SDS011;37038;50.182;8.624;2022-08-21T17:26:05;5.00;;;2.05;;
51010;SDS011;37038;50.182;8.624;2022-08-21T17:29:00;2.80;;;1.80;;
51010;SDS011;37038;50.182;8.624;2022-08-21T17:31:56;3.25;;;1.75;;
51010;SDS011;37038;50.182;8.624;2022-08-21T17:34:48;5.18;;;2.30;;
51010;SDS011;37038;50.182;8.624;2022-08-21T17:37:40;2.00;;;1.58;;
51010;SDS011;37038;50.182;8.624;2022-08-21T17:40:33;9.23;;;1.85;;
51010;SDS011;37038;50.182;8.624;2022-08-21T17:43:25;4.43;;;1.90;;
51010;SDS011;37038;50.182;8.624;2022-08-21T17:46:21;8.13;;;1.73;;
51010;SDS011;37038;50.182;8.624;2022-08-21T17:49:16;6.38;;;2.22;;
51010;SDS011;37038;50.182;8.624;2022-08-21T17:52:06;3.42;;;1.70;;
51010;SDS011;37038;50.182;8.624;2022-08-21T17:54:58;7.50;;;2.17;;
51010;SDS011;37038;50.182;8.624;2022-08-21T17:57:50;4.32;;;1.90;;
51010;SDS011;37038;50.182;8.624;2022-08-21T18:00:43;7.13;;;2.38;;
51010;SDS011;37038;50.182;8.624;2022-08-21T18:03:35;4.35;;;1.90;;
51010;SDS011;37038;50.182;8.624;2022-08-21T18:06:27;5.63;;;2.13;;
51010;SDS011;37038;50.182;8.624;2022-08-21T18:09:20;6.10;;;1.80;;
51010;SDS011;37038;50.182;8.624;2022-08-21T18:12:15;4.10;;;2.22;;
51010;SDS011;37038;50.182;8.624;2022-08-21T18:15:05;7.13;;;2.20;;
51010;SDS011;37038;50.182;8.624;2022-08-21T18:17:56;2.95;;;2.05;;
51010;SDS011;37038;50.182;8.624;2022-08-21T18:20:48;3.97;;;2.03;;
51010;SDS011;37038;50.182;8.624;2022-08-21T18:23:40;2.55;;;1.67;;
51010;SDS011;37038;50.182;8.624;2022-08-21T18:26:35;3.33;;;1.98;;
51010;SDS011;37038;50.182;8.624;2022-08-21T18:29:27;2.75;;;1.70;;
51010;SDS011;37038;50.182;8.624;2022-08-21T18:32:19;5.35;;;2.20;;
51010;SDS011;37038;50.182;8.624;2022-08-21T18:35:19;6.03;;;3.40;;